sensor_id;sensor_type;location;lat;lon;timestamp;P1;durP1;ratioP1;P2;durP2;ratioP2
32038;SDS011;18549;42.286;22.688;2022-10-18T00:00:04;30.17;;;18.43;;
32038;SDS011;18549;42.286;22.688;2022-10-18T00:02:32;38.83;;;22.90;;
32038;SDS011;18549;42.286;22.688;2022-10-18T00:04:59;40.80;;;27.47;;
32038;SDS011;18549;42.286;22.688;2022-10-18T00:07:26;55.43;;;29.47;;
32038;SDS011;18549;42.286;22.688;2022-10-18T00:09:53;59.87;;;33.10;;
32038;SDS011;18549;42.286;22.688;2022-10-18T00:12:21;58.97;;;33.73;;
32038;SDS011;18549;42.286;22.688;2022-10-18T00:14:51;59.43;;;33.27;;
32038;SDS011;18549;42.286;22.688;2022-10-18T00:17:18;52.93;;;30.47;;
32038;SDS011;18549;42.286;22.688;2022-10-18T00:19:45;55.77;;;32.80;;
32038;SDS011;18549;42.286;22.688;2022-10-18T00:22:13;57.40;;;33.87;;
32038;SDS011;18549;42.286;22.688;2022-10-18T00:24:40;59.47;;;32.33;;
32038;SDS011;18549;42.286;22.688;2022-10-18T00:27:08;57.20;;;32.27;;
32038;SDS011;18549;42.286;22.688;2022-10-18T00:29:37;56.40;;;29.10;;
32038;SDS011;18549;42.286;22.688;2022-10-18T00:32:05;40.53;;;23.80;;
32038;SDS011;18549;42.286;22.688;2022-10-18T00:34:32;30.90;;;19.63;;
32038;SDS011;18549;42.286;22.688;2022-10-18T00:36:59;27.33;;;17.43;;
32038;SDS011;18549;42.286;22.688;2022-10-18T00:39:26;24.70;;;16.13;;
32038;SDS011;18549;42.286;22.688;2022-10-18T00:41:52;26.13;;;16.27;;
32038;SDS011;18549;42.286;22.688;2022-10-18T00:47:25;31.23;;;15.53;;
32038;SDS011;18549;42.286;22.688;2022-10-18T00:49:55;22.97;;;15.30;;
32038;SDS011;18549;42.286;22.688;2022-10-18T00:52:25;21.70;;;14.60;;
32038;SDS011;18549;42.286;22.688;2022-10-18T00:54:54;33.07;;;15.53;;
32038;SDS011;18549;42.286;22.688;2022-10-18T00:57:22;24.50;;;13.30;;
32038;SDS011;18549;42.286;22.688;2022-10-18T00:59:49;22.27;;;12.43;;
32038;SDS011;18549;42.286;22.688;2022-10-18T01:02:17;17.23;;;11.70;;
32038;SDS011;18549;42.286;22.688;2022-10-18T01:04:45;19.43;;;11.80;;
32038;SDS011;18549;42.286;22.688;2022-10-18T01:07:15;19.33;;;12.00;;
32038;SDS011;18549;42.286;22.688;2022-10-18T01:09:51;21.00;;;11.70;;
32038;SDS011;18549;42.286;22.688;2022-10-18T01:12:25;16.50;;;10.17;;
32038;SDS011;18549;42.286;22.688;2022-10-18T01:14:59;21.23;;;10.73;;
32038;SDS011;18549;42.286;22.688;2022-10-18T01:17:34;23.53;;;11.07;;
32038;SDS011;18549;42.286;22.688;2022-10-18T01:20:21;22.43;;;12.17;;
32038;SDS011;18549;42.286;22.688;2022-10-18T01:23:00;22.10;;;12.77;;
32038;SDS011;18549;42.286;22.688;2022-10-18T01:25:34;23.73;;;14.83;;
32038;SDS011;18549;42.286;22.688;2022-10-18T01:28:08;31.77;;;16.40;;
32038;SDS011;18549;42.286;22.688;2022-10-18T01:30:54;22.07;;;15.67;;
32038;SDS011;18549;42.286;22.688;2022-10-18T01:33:29;30.70;;;17.30;;
32038;SDS011;18549;42.286;22.688;2022-10-18T01:36:02;33.83;;;18.37;;
32038;SDS011;18549;42.286;22.688;2022-10-18T01:38:40;29.53;;;18.07;;
32038;SDS011;18549;42.286;22.688;2022-10-18T01:41:09;34.33;;;17.13;;
32038;SDS011;18549;42.286;22.688;2022-10-18T01:43:38;25.80;;;15.20;;
32038;SDS011;18549;42.286;22.688;2022-10-18T01:46:07;21.97;;;13.10;;
32038;SDS011;18549;42.286;22.688;2022-10-18T01:48:35;19.20;;;12.03;;
32038;SDS011;18549;42.286;22.688;2022-10-18T01:51:03;24.57;;;13.80;;
32038;SDS011;18549;42.286;22.688;2022-10-18T01:53:30;29.83;;;14.73;;
32038;SDS011;18549;42.286;22.688;2022-10-18T01:56:04;18.23;;;12.40;;
32038;SDS011;18549;42.286;22.688;2022-10-18T01:58:45;22.97;;;13.37;;
32038;SDS011;18549;42.286;22.688;2022-10-18T02:01:27;25.07;;;12.83;;
32038;SDS011;18549;42.286;22.688;2022-10-18T02:04:02;25.30;;;14.57;;
32038;SDS011;18549;42.286;22.688;2022-10-18T02:06:37;22.83;;;14.07;;
32038;SDS011;18549;42.286;22.688;2022-10-18T02:09:10;21.30;;;11.93;;
32038;SDS011;18549;42.286;22.688;2022-10-18T02:11:41;17.77;;;11.80;;
32038;SDS011;18549;42.286;22.688;2022-10-18T02:14:12;27.27;;;14.40;;
32038;SDS011;18549;42.286;22.688;2022-10-18T02:16:47;20.90;;;13.67;;
32038;SDS011;18549;42.286;22.688;2022-10-18T02:19:17;25.63;;;14.10;;
32038;SDS011;18549;42.286;22.688;2022-10-18T02:21:49;21.17;;;13.80;;
32038;SDS011;18549;42.286;22.688;2022-10-18T02:24:19;20.33;;;12.90;;
32038;SDS011;18549;42.286;22.688;2022-10-18T02:26:49;24.07;;;14.13;;
32038;SDS011;18549;42.286;22.688;2022-10-18T02:29:16;22.20;;;13.53;;
32038;SDS011;18549;42.286;22.688;2022-10-18T02:31:44;21.33;;;12.87;;
32038;SDS011;18549;42.286;22.688;2022-10-18T02:34:17;22.40;;;12.60;;
32038;SDS011;18549;42.286;22.688;2022-10-18T02:36:47;17.63;;;12.30;;
32038;SDS011;18549;42.286;22.688;2022-10-18T02:39:18;25.60;;;13.53;;
32038;SDS011;18549;42.286;22.688;2022-10-18T02:41:47;22.13;;;13.40;;
32038;SDS011;18549;42.286;22.688;2022-10-18T02:44:14;24.23;;;15.77;;
32038;SDS011;18549;42.286;22.688;2022-10-18T02:46:41;29.20;;;17.17;;
32038;SDS011;18549;42.286;22.688;2022-10-18T02:49:08;33.43;;;18.43;;
32038;SDS011;18549;42.286;22.688;2022-10-18T02:51:37;36.70;;;20.90;;
32038;SDS011;18549;42.286;22.688;2022-10-18T02:54:04;40.07;;;20.47;;
32038;SDS011;18549;42.286;22.688;2022-10-18T02:56:32;35.37;;;19.67;;
32038;SDS011;18549;42.286;22.688;2022-10-18T02:58:59;30.37;;;18.80;;
32038;SDS011;18549;42.286;22.688;2022-10-18T03:01:29;32.70;;;18.90;;
32038;SDS011;18549;42.286;22.688;2022-10-18T03:03:58;30.43;;;18.17;;
32038;SDS011;18549;42.286;22.688;2022-10-18T03:06:26;28.23;;;18.43;;
32038;SDS011;18549;42.286;22.688;2022-10-18T03:08:54;47.60;;;21.23;;
32038;SDS011;18549;42.286;22.688;2022-10-18T03:11:22;33.50;;;19.87;;
32038;SDS011;18549;42.286;22.688;2022-10-18T03:13:50;33.90;;;18.83;;
32038;SDS011;18549;42.286;22.688;2022-10-18T03:16:16;33.40;;;18.10;;
32038;SDS011;18549;42.286;22.688;2022-10-18T03:18:43;29.30;;;14.40;;
32038;SDS011;18549;42.286;22.688;2022-10-18T03:21:10;23.23;;;12.20;;
32038;SDS011;18549;42.286;22.688;2022-10-18T03:23:39;21.60;;;13.27;;
32038;SDS011;18549;42.286;22.688;2022-10-18T03:26:08;26.20;;;14.53;;
32038;SDS011;18549;42.286;22.688;2022-10-18T03:28:35;27.33;;;16.57;;
32038;SDS011;18549;42.286;22.688;2022-10-18T03:31:02;25.33;;;13.73;;
32038;SDS011;18549;42.286;22.688;2022-10-18T03:33:30;17.83;;;12.10;;
32038;SDS011;18549;42.286;22.688;2022-10-18T03:35:57;28.60;;;13.30;;
32038;SDS011;18549;42.286;22.688;2022-10-18T03:38:24;22.20;;;11.73;;
32038;SDS011;18549;42.286;22.688;2022-10-18T03:40:56;19.63;;;11.57;;
32038;SDS011;18549;42.286;22.688;2022-10-18T03:43:27;30.33;;;13.33;;
32038;SDS011;18549;42.286;22.688;2022-10-18T03:45:54;26.07;;;14.37;;
32038;SDS011;18549;42.286;22.688;2022-10-18T03:48:21;25.37;;;15.80;;
32038;SDS011;18549;42.286;22.688;2022-10-18T03:50:50;31.43;;;18.80;;
32038;SDS011;18549;42.286;22.688;2022-10-18T03:53:17;35.20;;;20.80;;
32038;SDS011;18549;42.286;22.688;2022-10-18T03:55:44;35.10;;;20.97;;
32038;SDS011;18549;42.286;22.688;2022-10-18T03:58:18;33.93;;;23.33;;
32038;SDS011;18549;42.286;22.688;2022-10-18T04:00:49;36.97;;;21.33;;
32038;SDS011;18549;42.286;22.688;2022-10-18T04:03:16;31.73;;;17.77;;
32038;SDS011;18549;42.286;22.688;2022-10-18T04:05:52;54.00;;;29.90;;
32038;SDS011;18549;42.286;22.688;2022-10-18T04:08:19;80.43;;;40.80;;
32038;SDS011;18549;42.286;22.688;2022-10-18T04:10:45;76.73;;;44.70;;
32038;SDS011;18549;42.286;22.688;2022-10-18T04:13:12;102.63;;;52.10;;
32038;SDS011;18549;42.286;22.688;2022-10-18T04:15:39;70.70;;;43.50;;
32038;SDS011;18549;42.286;22.688;2022-10-18T04:18:08;70.67;;;38.87;;
32038;SDS011;18549;42.286;22.688;2022-10-18T04:20:34;52.53;;;31.83;;
32038;SDS011;18549;42.286;22.688;2022-10-18T04:23:01;59.93;;;33.40;;
32038;SDS011;18549;42.286;22.688;2022-10-18T04:25:28;47.40;;;31.70;;
32038;SDS011;18549;42.286;22.688;2022-10-18T04:27:55;50.43;;;28.73;;
32038;SDS011;18549;42.286;22.688;2022-10-18T04:30:22;61.30;;;31.00;;
32038;SDS011;18549;42.286;22.688;2022-10-18T04:32:49;40.57;;;28.40;;
32038;SDS011;18549;42.286;22.688;2022-10-18T04:35:17;53.73;;;29.50;;
32038;SDS011;18549;42.286;22.688;2022-10-18T04:37:48;54.03;;;32.40;;
32038;SDS011;18549;42.286;22.688;2022-10-18T04:40:15;57.37;;;34.07;;
32038;SDS011;18549;42.286;22.688;2022-10-18T04:42:42;53.27;;;29.20;;
32038;SDS011;18549;42.286;22.688;2022-10-18T04:45:09;38.37;;;22.53;;
32038;SDS011;18549;42.286;22.688;2022-10-18T04:47:36;36.80;;;23.07;;
32038;SDS011;18549;42.286;22.688;2022-10-18T04:50:04;50.23;;;24.53;;
32038;SDS011;18549;42.286;22.688;2022-10-18T04:52:33;41.00;;;23.30;;
32038;SDS011;18549;42.286;22.688;2022-10-18T04:55:00;40.77;;;22.33;;
32038;SDS011;18549;42.286;22.688;2022-10-18T04:57:27;41.27;;;22.23;;
32038;SDS011;18549;42.286;22.688;2022-10-18T04:59:57;39.17;;;22.30;;
32038;SDS011;18549;42.286;22.688;2022-10-18T05:02:24;33.17;;;21.27;;
32038;SDS011;18549;42.286;22.688;2022-10-18T05:04:51;39.53;;;24.43;;
32038;SDS011;18549;42.286;22.688;2022-10-18T05:07:18;39.67;;;22.47;;
32038;SDS011;18549;42.286;22.688;2022-10-18T05:09:47;41.60;;;25.50;;
32038;SDS011;18549;42.286;22.688;2022-10-18T05:12:14;41.10;;;25.90;;
32038;SDS011;18549;42.286;22.688;2022-10-18T05:14:43;48.70;;;27.60;;
32038;SDS011;18549;42.286;22.688;2022-10-18T05:17:10;61.67;;;25.30;;
32038;SDS011;18549;42.286;22.688;2022-10-18T05:19:37;36.13;;;24.50;;
32038;SDS011;18549;42.286;22.688;2022-10-18T05:22:04;44.93;;;27.67;;
32038;SDS011;18549;42.286;22.688;2022-10-18T05:24:32;53.00;;;29.17;;
32038;SDS011;18549;42.286;22.688;2022-10-18T05:27:01;57.70;;;25.10;;
32038;SDS011;18549;42.286;22.688;2022-10-18T05:29:27;54.53;;;27.33;;
32038;SDS011;18549;42.286;22.688;2022-10-18T05:31:55;66.40;;;34.43;;
32038;SDS011;18549;42.286;22.688;2022-10-18T05:34:23;83.83;;;46.50;;
32038;SDS011;18549;42.286;22.688;2022-10-18T05:36:51;114.67;;;56.20;;
32038;SDS011;18549;42.286;22.688;2022-10-18T05:39:18;128.07;;;65.07;;
32038;SDS011;18549;42.286;22.688;2022-10-18T05:41:45;142.60;;;70.30;;
32038;SDS011;18549;42.286;22.688;2022-10-18T05:44:14;117.50;;;67.20;;
32038;SDS011;18549;42.286;22.688;2022-10-18T05:46:41;131.67;;;74.03;;
32038;SDS011;18549;42.286;22.688;2022-10-18T05:49:08;112.47;;;64.17;;
32038;SDS011;18549;42.286;22.688;2022-10-18T05:51:36;99.30;;;58.87;;
32038;SDS011;18549;42.286;22.688;2022-10-18T05:54:03;98.80;;;66.60;;
32038;SDS011;18549;42.286;22.688;2022-10-18T05:56:31;98.80;;;61.57;;
32038;SDS011;18549;42.286;22.688;2022-10-18T05:58:57;85.67;;;51.00;;
32038;SDS011;18549;42.286;22.688;2022-10-18T06:01:26;65.00;;;44.30;;
32038;SDS011;18549;42.286;22.688;2022-10-18T06:03:52;58.67;;;39.67;;
32038;SDS011;18549;42.286;22.688;2022-10-18T06:06:19;69.50;;;40.37;;
32038;SDS011;18549;42.286;22.688;2022-10-18T06:08:47;62.43;;;38.27;;
32038;SDS011;18549;42.286;22.688;2022-10-18T06:11:16;63.27;;;40.13;;
32038;SDS011;18549;42.286;22.688;2022-10-18T06:13:44;65.93;;;41.67;;
32038;SDS011;18549;42.286;22.688;2022-10-18T06:16:13;62.43;;;38.17;;
32038;SDS011;18549;42.286;22.688;2022-10-18T06:18:42;62.70;;;35.50;;
32038;SDS011;18549;42.286;22.688;2022-10-18T06:21:12;58.97;;;35.87;;
32038;SDS011;18549;42.286;22.688;2022-10-18T06:23:39;60.47;;;35.70;;
32038;SDS011;18549;42.286;22.688;2022-10-18T06:26:07;58.70;;;35.03;;
32038;SDS011;18549;42.286;22.688;2022-10-18T06:28:36;54.87;;;33.17;;
32038;SDS011;18549;42.286;22.688;2022-10-18T06:31:04;60.00;;;33.07;;
32038;SDS011;18549;42.286;22.688;2022-10-18T06:33:33;55.67;;;33.23;;
32038;SDS011;18549;42.286;22.688;2022-10-18T06:36:03;62.73;;;33.27;;
32038;SDS011;18549;42.286;22.688;2022-10-18T06:38:33;68.57;;;35.30;;
32038;SDS011;18549;42.286;22.688;2022-10-18T06:41:00;57.40;;;34.53;;
32038;SDS011;18549;42.286;22.688;2022-10-18T06:43:27;65.43;;;37.07;;
32038;SDS011;18549;42.286;22.688;2022-10-18T06:45:56;69.00;;;39.23;;
32038;SDS011;18549;42.286;22.688;2022-10-18T06:48:23;60.53;;;37.90;;
32038;SDS011;18549;42.286;22.688;2022-10-18T06:50:54;59.70;;;38.47;;
32038;SDS011;18549;42.286;22.688;2022-10-18T06:53:31;62.43;;;37.43;;
32038;SDS011;18549;42.286;22.688;2022-10-18T06:56:00;54.23;;;33.57;;
32038;SDS011;18549;42.286;22.688;2022-10-18T06:58:30;55.33;;;30.10;;
32038;SDS011;18549;42.286;22.688;2022-10-18T07:01:03;44.97;;;29.57;;
32038;SDS011;18549;42.286;22.688;2022-10-18T07:03:31;45.37;;;21.87;;
32038;SDS011;18549;42.286;22.688;2022-10-18T07:05:59;42.43;;;19.47;;
32038;SDS011;18549;42.286;22.688;2022-10-18T07:08:26;45.97;;;19.47;;
32038;SDS011;18549;42.286;22.688;2022-10-18T07:10:56;30.77;;;16.47;;
32038;SDS011;18549;42.286;22.688;2022-10-18T07:13:23;23.30;;;13.53;;
32038;SDS011;18549;42.286;22.688;2022-10-18T07:15:59;21.67;;;12.93;;
32038;SDS011;18549;42.286;22.688;2022-10-18T07:18:27;18.17;;;13.10;;
32038;SDS011;18549;42.286;22.688;2022-10-18T07:20:54;24.80;;;12.33;;
32038;SDS011;18549;42.286;22.688;2022-10-18T07:23:21;21.00;;;14.93;;
32038;SDS011;18549;42.286;22.688;2022-10-18T07:25:49;29.77;;;20.20;;
32038;SDS011;18549;42.286;22.688;2022-10-18T07:28:18;18.57;;;10.87;;
32038;SDS011;18549;42.286;22.688;2022-10-18T07:30:48;27.20;;;11.53;;
32038;SDS011;18549;42.286;22.688;2022-10-18T07:33:15;17.10;;;9.50;;
32038;SDS011;18549;42.286;22.688;2022-10-18T07:35:42;21.17;;;9.50;;
32038;SDS011;18549;42.286;22.688;2022-10-18T07:38:11;19.27;;;9.83;;
32038;SDS011;18549;42.286;22.688;2022-10-18T07:40:38;17.07;;;9.80;;
32038;SDS011;18549;42.286;22.688;2022-10-18T07:43:05;14.53;;;10.47;;
32038;SDS011;18549;42.286;22.688;2022-10-18T07:45:34;15.23;;;9.73;;
32038;SDS011;18549;42.286;22.688;2022-10-18T07:48:01;15.17;;;9.87;;
32038;SDS011;18549;42.286;22.688;2022-10-18T07:50:28;18.13;;;10.33;;
32038;SDS011;18549;42.286;22.688;2022-10-18T07:52:55;12.47;;;8.60;;
32038;SDS011;18549;42.286;22.688;2022-10-18T07:55:23;16.63;;;10.00;;
32038;SDS011;18549;42.286;22.688;2022-10-18T07:57:50;18.40;;;8.67;;
32038;SDS011;18549;42.286;22.688;2022-10-18T08:00:17;13.27;;;9.43;;
32038;SDS011;18549;42.286;22.688;2022-10-18T08:02:45;14.57;;;9.40;;
32038;SDS011;18549;42.286;22.688;2022-10-18T08:05:14;18.27;;;8.60;;
32038;SDS011;18549;42.286;22.688;2022-10-18T08:07:41;14.67;;;9.67;;
32038;SDS011;18549;42.286;22.688;2022-10-18T08:10:11;12.83;;;9.30;;
32038;SDS011;18549;42.286;22.688;2022-10-18T08:12:38;12.07;;;9.33;;
32038;SDS011;18549;42.286;22.688;2022-10-18T08:15:07;18.50;;;12.10;;
32038;SDS011;18549;42.286;22.688;2022-10-18T08:17:34;18.00;;;8.03;;
32038;SDS011;18549;42.286;22.688;2022-10-18T08:20:03;14.10;;;9.40;;
32038;SDS011;18549;42.286;22.688;2022-10-18T08:22:30;14.47;;;9.30;;
32038;SDS011;18549;42.286;22.688;2022-10-18T08:24:57;13.80;;;8.10;;
32038;SDS011;18549;42.286;22.688;2022-10-18T08:27:26;14.03;;;8.40;;
32038;SDS011;18549;42.286;22.688;2022-10-18T08:29:52;15.17;;;9.27;;
32038;SDS011;18549;42.286;22.688;2022-10-18T08:32:19;16.70;;;7.73;;
32038;SDS011;18549;42.286;22.688;2022-10-18T08:34:49;11.63;;;8.10;;
32038;SDS011;18549;42.286;22.688;2022-10-18T08:37:19;19.33;;;8.93;;
32038;SDS011;18549;42.286;22.688;2022-10-18T08:39:46;11.30;;;7.80;;
32038;SDS011;18549;42.286;22.688;2022-10-18T08:42:20;10.43;;;7.60;;
32038;SDS011;18549;42.286;22.688;2022-10-18T08:44:58;17.27;;;8.67;;
32038;SDS011;18549;42.286;22.688;2022-10-18T08:47:29;10.20;;;7.30;;
32038;SDS011;18549;42.286;22.688;2022-10-18T08:50:01;10.97;;;7.57;;
32038;SDS011;18549;42.286;22.688;2022-10-18T08:52:32;15.90;;;9.03;;
32038;SDS011;18549;42.286;22.688;2022-10-18T08:55:08;10.67;;;7.13;;
32038;SDS011;18549;42.286;22.688;2022-10-18T08:57:39;17.93;;;6.70;;
32038;SDS011;18549;42.286;22.688;2022-10-18T09:00:07;10.57;;;6.97;;
32038;SDS011;18549;42.286;22.688;2022-10-18T09:02:45;10.50;;;6.97;;
32038;SDS011;18549;42.286;22.688;2022-10-18T09:05:48;10.80;;;6.47;;
32038;SDS011;18549;42.286;22.688;2022-10-18T09:08:26;19.03;;;7.27;;
32038;SDS011;18549;42.286;22.688;2022-10-18T09:11:08;12.60;;;6.87;;
32038;SDS011;18549;42.286;22.688;2022-10-18T09:16:44;11.37;;;6.27;;
32038;SDS011;18549;42.286;22.688;2022-10-18T09:19:20;10.23;;;5.80;;
32038;SDS011;18549;42.286;22.688;2022-10-18T09:22:02;20.20;;;5.80;;
32038;SDS011;18549;42.286;22.688;2022-10-18T09:24:40;12.70;;;5.20;;
32038;SDS011;18549;42.286;22.688;2022-10-18T09:27:15;16.57;;;5.50;;
32038;SDS011;18549;42.286;22.688;2022-10-18T09:29:46;8.20;;;5.40;;
32038;SDS011;18549;42.286;22.688;2022-10-18T09:32:31;10.60;;;6.17;;
32038;SDS011;18549;42.286;22.688;2022-10-18T09:35:11;18.10;;;6.57;;
32038;SDS011;18549;42.286;22.688;2022-10-18T09:37:40;12.20;;;5.47;;
32038;SDS011;18549;42.286;22.688;2022-10-18T09:40:13;11.33;;;4.97;;
32038;SDS011;18549;42.286;22.688;2022-10-18T09:42:46;12.20;;;5.93;;
32038;SDS011;18549;42.286;22.688;2022-10-18T09:45:22;8.00;;;5.33;;
32038;SDS011;18549;42.286;22.688;2022-10-18T09:47:55;8.85;;;6.12;;
32038;SDS011;18549;42.286;22.688;2022-10-18T09:50:29;9.33;;;5.70;;
32038;SDS011;18549;42.286;22.688;2022-10-18T09:53:03;13.80;;;5.00;;
32038;SDS011;18549;42.286;22.688;2022-10-18T09:55:42;8.00;;;5.40;;
32038;SDS011;18549;42.286;22.688;2022-10-18T09:58:24;8.37;;;5.60;;
32038;SDS011;18549;42.286;22.688;2022-10-18T10:00:53;7.62;;;5.65;;
32038;SDS011;18549;42.286;22.688;2022-10-18T10:03:21;11.63;;;4.57;;
32038;SDS011;18549;42.286;22.688;2022-10-18T10:06:00;6.33;;;4.77;;
32038;SDS011;18549;42.286;22.688;2022-10-18T10:08:33;6.90;;;5.03;;
32038;SDS011;18549;42.286;22.688;2022-10-18T10:11:01;16.33;;;5.33;;
32038;SDS011;18549;42.286;22.688;2022-10-18T10:13:28;8.00;;;4.37;;
32038;SDS011;18549;42.286;22.688;2022-10-18T10:15:56;4.72;;;3.80;;
32038;SDS011;18549;42.286;22.688;2022-10-18T10:18:28;10.15;;;4.57;;
32038;SDS011;18549;42.286;22.688;2022-10-18T10:21:00;6.18;;;3.42;;
32038;SDS011;18549;42.286;22.688;2022-10-18T10:23:36;13.20;;;3.47;;
32038;SDS011;18549;42.286;22.688;2022-10-18T10:26:19;6.62;;;3.33;;
32038;SDS011;18549;42.286;22.688;2022-10-18T10:28:49;10.10;;;3.72;;
32038;SDS011;18549;42.286;22.688;2022-10-18T10:31:17;6.55;;;3.83;;
32038;SDS011;18549;42.286;22.688;2022-10-18T10:33:58;13.73;;;3.95;;
32038;SDS011;18549;42.286;22.688;2022-10-18T10:36:26;6.20;;;3.75;;
32038;SDS011;18549;42.286;22.688;2022-10-18T10:39:03;5.03;;;3.05;;
32038;SDS011;18549;42.286;22.688;2022-10-18T10:41:33;12.05;;;4.18;;
32038;SDS011;18549;42.286;22.688;2022-10-18T10:44:00;6.10;;;3.58;;
32038;SDS011;18549;42.286;22.688;2022-10-18T10:46:39;12.25;;;3.60;;
32038;SDS011;18549;42.286;22.688;2022-10-18T10:49:12;5.85;;;2.75;;
32038;SDS011;18549;42.286;22.688;2022-10-18T10:51:43;8.65;;;3.03;;
32038;SDS011;18549;42.286;22.688;2022-10-18T10:54:12;5.12;;;2.83;;
32038;SDS011;18549;42.286;22.688;2022-10-18T10:56:50;6.93;;;3.00;;
32038;SDS011;18549;42.286;22.688;2022-10-18T10:59:21;11.35;;;3.40;;
32038;SDS011;18549;42.286;22.688;2022-10-18T11:01:53;7.62;;;3.00;;
32038;SDS011;18549;42.286;22.688;2022-10-18T11:04:47;3.78;;;3.05;;
32038;SDS011;18549;42.286;22.688;2022-10-18T11:07:17;5.85;;;3.00;;
32038;SDS011;18549;42.286;22.688;2022-10-18T11:09:53;9.57;;;3.67;;
32038;SDS011;18549;42.286;22.688;2022-10-18T11:12:31;5.35;;;3.17;;
32038;SDS011;18549;42.286;22.688;2022-10-18T11:15:14;9.48;;;3.12;;
32038;SDS011;18549;42.286;22.688;2022-10-18T11:17:46;10.07;;;3.90;;
32038;SDS011;18549;42.286;22.688;2022-10-18T11:20:23;10.25;;;4.22;;
32038;SDS011;18549;42.286;22.688;2022-10-18T11:22:58;8.48;;;3.00;;
32038;SDS011;18549;42.286;22.688;2022-10-18T11:25:33;4.85;;;3.42;;
32038;SDS011;18549;42.286;22.688;2022-10-18T11:28:15;4.93;;;2.70;;
32038;SDS011;18549;42.286;22.688;2022-10-18T11:30:59;7.20;;;2.60;;
32038;SDS011;18549;42.286;22.688;2022-10-18T11:33:38;11.32;;;5.60;;
32038;SDS011;18549;42.286;22.688;2022-10-18T11:36:14;3.97;;;2.67;;
32038;SDS011;18549;42.286;22.688;2022-10-18T11:38:47;4.32;;;2.90;;
32038;SDS011;18549;42.286;22.688;2022-10-18T11:41:25;7.40;;;2.70;;
32038;SDS011;18549;42.286;22.688;2022-10-18T11:44:00;6.95;;;3.05;;
32038;SDS011;18549;42.286;22.688;2022-10-18T11:46:34;3.05;;;2.17;;
32038;SDS011;18549;42.286;22.688;2022-10-18T11:49:13;8.65;;;2.30;;
32038;SDS011;18549;42.286;22.688;2022-10-18T11:51:58;6.20;;;3.05;;
32038;SDS011;18549;42.286;22.688;2022-10-18T11:54:40;4.55;;;2.53;;
32038;SDS011;18549;42.286;22.688;2022-10-18T11:57:27;6.18;;;3.10;;
32038;SDS011;18549;42.286;22.688;2022-10-18T12:00:07;4.53;;;2.90;;
32038;SDS011;18549;42.286;22.688;2022-10-18T12:02:47;5.95;;;2.58;;
32038;SDS011;18549;42.286;22.688;2022-10-18T12:05:30;5.10;;;2.45;;
32038;SDS011;18549;42.286;22.688;2022-10-18T12:08:04;7.50;;;2.60;;
32038;SDS011;18549;42.286;22.688;2022-10-18T12:10:34;7.93;;;2.62;;
32038;SDS011;18549;42.286;22.688;2022-10-18T12:13:03;14.85;;;3.10;;
32038;SDS011;18549;42.286;22.688;2022-10-18T12:15:43;3.42;;;2.25;;
32038;SDS011;18549;42.286;22.688;2022-10-18T12:18:13;9.30;;;2.78;;
32038;SDS011;18549;42.286;22.688;2022-10-18T12:20:44;4.25;;;3.08;;
32038;SDS011;18549;42.286;22.688;2022-10-18T12:23:13;6.30;;;2.72;;
32038;SDS011;18549;42.286;22.688;2022-10-18T12:25:43;4.12;;;2.62;;
32038;SDS011;18549;42.286;22.688;2022-10-18T12:28:15;4.57;;;3.03;;
32038;SDS011;18549;42.286;22.688;2022-10-18T12:30:51;18.87;;;3.12;;
32038;SDS011;18549;42.286;22.688;2022-10-18T12:33:23;7.40;;;2.55;;
32038;SDS011;18549;42.286;22.688;2022-10-18T12:35:59;7.70;;;2.55;;
32038;SDS011;18549;42.286;22.688;2022-10-18T12:38:35;6.68;;;2.17;;
32038;SDS011;18549;42.286;22.688;2022-10-18T12:41:06;5.45;;;2.55;;
32038;SDS011;18549;42.286;22.688;2022-10-18T12:43:46;3.90;;;2.08;;
32038;SDS011;18549;42.286;22.688;2022-10-18T12:46:18;7.97;;;2.80;;
32038;SDS011;18549;42.286;22.688;2022-10-18T12:48:48;10.07;;;3.03;;
32038;SDS011;18549;42.286;22.688;2022-10-18T12:51:26;6.95;;;2.20;;
32038;SDS011;18549;42.286;22.688;2022-10-18T12:54:07;4.87;;;2.87;;
32038;SDS011;18549;42.286;22.688;2022-10-18T12:56:40;5.75;;;2.33;;
32038;SDS011;18549;42.286;22.688;2022-10-18T13:02:25;5.70;;;2.20;;
32038;SDS011;18549;42.286;22.688;2022-10-18T13:04:54;4.15;;;2.62;;
32038;SDS011;18549;42.286;22.688;2022-10-18T13:07:32;10.02;;;2.67;;
32038;SDS011;18549;42.286;22.688;2022-10-18T13:13:16;3.55;;;2.40;;
32038;SDS011;18549;42.286;22.688;2022-10-18T13:16:01;4.95;;;2.12;;
32038;SDS011;18549;42.286;22.688;2022-10-18T13:18:38;2.58;;;1.98;;
32038;SDS011;18549;42.286;22.688;2022-10-18T13:21:16;6.22;;;2.40;;
32038;SDS011;18549;42.286;22.688;2022-10-18T13:23:54;8.00;;;2.67;;
32038;SDS011;18549;42.286;22.688;2022-10-18T13:26:33;4.62;;;2.87;;
32038;SDS011;18549;42.286;22.688;2022-10-18T13:29:08;4.78;;;2.50;;
32038;SDS011;18549;42.286;22.688;2022-10-18T13:31:51;4.00;;;2.33;;
32038;SDS011;18549;42.286;22.688;2022-10-18T13:34:29;11.15;;;2.40;;
32038;SDS011;18549;42.286;22.688;2022-10-18T13:37:03;6.37;;;2.60;;
32038;SDS011;18549;42.286;22.688;2022-10-18T13:39:31;6.18;;;2.83;;
32038;SDS011;18549;42.286;22.688;2022-10-18T13:42:18;10.57;;;2.95;;
32038;SDS011;18549;42.286;22.688;2022-10-18T13:44:56;4.05;;;1.90;;
32038;SDS011;18549;42.286;22.688;2022-10-18T13:51:14;4.15;;;2.05;;
32038;SDS011;18549;42.286;22.688;2022-10-18T13:53:53;2.92;;;1.95;;
32038;SDS011;18549;42.286;22.688;2022-10-18T13:56:42;4.20;;;2.20;;
32038;SDS011;18549;42.286;22.688;2022-10-18T13:59:20;14.30;;;2.05;;
32038;SDS011;18549;42.286;22.688;2022-10-18T14:02:11;11.02;;;3.65;;
32038;SDS011;18549;42.286;22.688;2022-10-18T14:08:01;4.50;;;2.80;;
32038;SDS011;18549;42.286;22.688;2022-10-18T14:10:33;5.62;;;3.12;;
32038;SDS011;18549;42.286;22.688;2022-10-18T14:13:05;6.85;;;3.72;;
32038;SDS011;18549;42.286;22.688;2022-10-18T14:15:40;9.13;;;2.97;;
32038;SDS011;18549;42.286;22.688;2022-10-18T14:18:12;5.03;;;3.58;;
32038;SDS011;18549;42.286;22.688;2022-10-18T14:20:46;7.18;;;3.60;;
32038;SDS011;18549;42.286;22.688;2022-10-18T14:23:19;6.70;;;3.62;;
32038;SDS011;18549;42.286;22.688;2022-10-18T14:25:50;5.20;;;3.80;;
32038;SDS011;18549;42.286;22.688;2022-10-18T14:28:31;5.53;;;3.05;;
32038;SDS011;18549;42.286;22.688;2022-10-18T14:31:01;5.05;;;3.25;;
32038;SDS011;18549;42.286;22.688;2022-10-18T14:33:33;7.87;;;4.28;;
32038;SDS011;18549;42.286;22.688;2022-10-18T14:36:05;6.97;;;3.95;;
32038;SDS011;18549;42.286;22.688;2022-10-18T14:38:36;15.68;;;4.10;;
32038;SDS011;18549;42.286;22.688;2022-10-18T14:41:12;7.37;;;4.25;;
32038;SDS011;18549;42.286;22.688;2022-10-18T14:43:41;9.13;;;6.10;;
32038;SDS011;18549;42.286;22.688;2022-10-18T14:46:10;9.57;;;6.70;;
32038;SDS011;18549;42.286;22.688;2022-10-18T14:48:51;14.10;;;5.87;;
32038;SDS011;18549;42.286;22.688;2022-10-18T14:51:19;11.50;;;5.57;;
32038;SDS011;18549;42.286;22.688;2022-10-18T14:53:50;7.25;;;5.10;;
32038;SDS011;18549;42.286;22.688;2022-10-18T14:56:20;11.32;;;5.55;;
32038;SDS011;18549;42.286;22.688;2022-10-18T14:58:53;7.60;;;5.28;;
32038;SDS011;18549;42.286;22.688;2022-10-18T15:01:23;11.25;;;6.62;;